sensor_id;sensor_type;location;lat;lon;timestamp;temperature;humidity
10270;DHT22;70826;50.930;5.334;2023-11-21T00:01:26;22.10;70.60
10270;DHT22;70826;50.930;5.334;2023-11-21T00:03:57;22.10;70.70
10270;DHT22;70826;50.930;5.334;2023-11-21T00:06:22;22.10;71.30
10270;DHT22;70826;50.930;5.334;2023-11-21T00:08:50;22.10;70.60
10270;DHT22;70826;50.930;5.334;2023-11-21T00:11:16;22.10;70.60
10270;DHT22;70826;50.930;5.334;2023-11-21T00:13:46;22.10;70.60
10270;DHT22;70826;50.930;5.334;2023-11-21T00:16:14;22.10;70.60
10270;DHT22;70826;50.930;5.334;2023-11-21T00:18:40;22.10;70.60
10270;DHT22;70826;50.930;5.334;2023-11-21T00:21:08;22.10;70.60
10270;DHT22;70826;50.930;5.334;2023-11-21T00:23:34;22.10;70.60
10270;DHT22;70826;50.930;5.334;2023-11-21T00:26:05;22.10;70.60
10270;DHT22;70826;50.930;5.334;2023-11-21T00:28:33;22.10;70.60
10270;DHT22;70826;50.930;5.334;2023-11-21T00:30:59;22.10;70.70
10270;DHT22;70826;50.930;5.334;2023-11-21T00:33:24;22.10;70.60
10270;DHT22;70826;50.930;5.334;2023-11-21T00:35:53;22.10;70.60
10270;DHT22;70826;50.930;5.334;2023-11-21T00:38:23;22.10;70.60
10270;DHT22;70826;50.930;5.334;2023-11-21T00:40:51;22.10;70.60
10270;DHT22;70826;50.930;5.334;2023-11-21T00:43:20;22.10;70.60
10270;DHT22;70826;50.930;5.334;2023-11-21T00:45:46;22.10;70.60
10270;DHT22;70826;50.930;5.334;2023-11-21T00:48:14;22.10;70.60
10270;DHT22;70826;50.930;5.334;2023-11-21T00:50:42;22.10;70.60
10270;DHT22;70826;50.930;5.334;2023-11-21T00:53:10;22.10;70.60
10270;DHT22;70826;50.930;5.334;2023-11-21T00:55:37;22.10;70.60
10270;DHT22;70826;50.930;5.334;2023-11-21T00:58:10;22.10;70.60
10270;DHT22;70826;50.930;5.334;2023-11-21T01:00:35;22.10;70.60
10270;DHT22;70826;50.930;5.334;2023-11-21T01:03:04;22.10;70.60
10270;DHT22;70826;50.930;5.334;2023-11-21T01:05:33;22.10;70.60
10270;DHT22;70826;50.930;5.334;2023-11-21T01:08:00;22.10;70.60
10270;DHT22;70826;50.930;5.334;2023-11-21T01:10:25;22.10;70.60
10270;DHT22;70826;50.930;5.334;2023-11-21T01:12:51;22.10;70.60
10270;DHT22;70826;50.930;5.334;2023-11-21T01:15:17;22.10;70.60
10270;DHT22;70826;50.930;5.334;2023-11-21T01:17:47;22.10;70.60
10270;DHT22;70826;50.930;5.334;2023-11-21T01:20:18;22.10;70.60
10270;DHT22;70826;50.930;5.334;2023-11-21T01:22:43;22.10;70.60
10270;DHT22;70826;50.930;5.334;2023-11-21T01:25:16;22.10;70.60
10270;DHT22;70826;50.930;5.334;2023-11-21T01:27:49;22.10;70.60
10270;DHT22;70826;50.930;5.334;2023-11-21T01:30:14;22.10;70.60
10270;DHT22;70826;50.930;5.334;2023-11-21T01:32:41;22.10;70.60
10270;DHT22;70826;50.930;5.334;2023-11-21T01:35:10;22.10;70.60
10270;DHT22;70826;50.930;5.334;2023-11-21T01:37:38;22.10;70.60
10270;DHT22;70826;50.930;5.334;2023-11-21T01:40:04;22.10;70.60
10270;DHT22;70826;50.930;5.334;2023-11-21T01:42:41;22.10;70.60
10270;DHT22;70826;50.930;5.334;2023-11-21T01:45:10;22.10;70.60
10270;DHT22;70826;50.930;5.334;2023-11-21T01:47:38;22.10;70.60
10270;DHT22;70826;50.930;5.334;2023-11-21T01:50:04;22.10;70.60
10270;DHT22;70826;50.930;5.334;2023-11-21T01:52:32;22.10;70.60
10270;DHT22;70826;50.930;5.334;2023-11-21T01:54:59;22.10;70.60
10270;DHT22;70826;50.930;5.334;2023-11-21T01:57:30;22.10;70.60
10270;DHT22;70826;50.930;5.334;2023-11-21T01:59:56;22.10;70.60
10270;DHT22;70826;50.930;5.334;2023-11-21T02:02:25;22.10;70.60
10270;DHT22;70826;50.930;5.334;2023-11-21T02:04:51;22.10;70.60
10270;DHT22;70826;50.930;5.334;2023-11-21T02:07:19;22.10;70.70
10270;DHT22;70826;50.930;5.334;2023-11-21T02:09:45;22.10;70.60
10270;DHT22;70826;50.930;5.334;2023-11-21T02:12:10;22.10;70.60
10270;DHT22;70826;50.930;5.334;2023-11-21T02:14:38;22.10;70.60
10270;DHT22;70826;50.930;5.334;2023-11-21T02:17:06;22.10;70.60
10270;DHT22;70826;50.930;5.334;2023-11-21T02:19:36;22.10;70.70
10270;DHT22;70826;50.930;5.334;2023-11-21T02:22:05;22.10;70.60
10270;DHT22;70826;50.930;5.334;2023-11-21T02:24:34;22.10;70.60
10270;DHT22;70826;50.930;5.334;2023-11-21T02:27:02;22.10;70.70
10270;DHT22;70826;50.930;5.334;2023-11-21T02:29:28;22.10;70.70
10270;DHT22;70826;50.930;5.334;2023-11-21T02:31:56;22.10;70.60
10270;DHT22;70826;50.930;5.334;2023-11-21T02:34:22;22.10;70.70
10270;DHT22;70826;50.930;5.334;2023-11-21T02:36:50;22.10;70.70
10270;DHT22;70826;50.930;5.334;2023-11-21T02:39:18;22.10;70.70
10270;DHT22;70826;50.930;5.334;2023-11-21T02:41:47;22.10;70.70
10270;DHT22;70826;50.930;5.334;2023-11-21T02:44:15;22.10;70.70
10270;DHT22;70826;50.930;5.334;2023-11-21T02:46:43;22.10;70.70
10270;DHT22;70826;50.930;5.334;2023-11-21T02:49:14;22.10;70.70
10270;DHT22;70826;50.930;5.334;2023-11-21T02:51:43;22.10;70.70
10270;DHT22;70826;50.930;5.334;2023-11-21T02:54:11;22.10;70.70
10270;DHT22;70826;50.930;5.334;2023-11-21T02:56:39;22.10;70.70
10270;DHT22;70826;50.930;5.334;2023-11-21T02:59:07;22.10;70.70
10270;DHT22;70826;50.930;5.334;2023-11-21T03:01:35;22.10;70.70
10270;DHT22;70826;50.930;5.334;2023-11-21T03:04:04;22.10;70.80
10270;DHT22;70826;50.930;5.334;2023-11-21T03:06:32;22.10;70.70
10270;DHT22;70826;50.930;5.334;2023-11-21T03:09:02;22.10;70.70
10270;DHT22;70826;50.930;5.334;2023-11-21T03:11:28;22.10;70.70
10270;DHT22;70826;50.930;5.334;2023-11-21T03:13:56;22.10;70.80
10270;DHT22;70826;50.930;5.334;2023-11-21T03:16:23;22.10;70.70
10270;DHT22;70826;50.930;5.334;2023-11-21T03:18:52;22.10;70.70
10270;DHT22;70826;50.930;5.334;2023-11-21T03:21:20;22.10;70.70
10270;DHT22;70826;50.930;5.334;2023-11-21T03:23:45;22.10;70.70
10270;DHT22;70826;50.930;5.334;2023-11-21T03:26:16;22.10;70.70
10270;DHT22;70826;50.930;5.334;2023-11-21T03:28:44;22.10;70.70
10270;DHT22;70826;50.930;5.334;2023-11-21T03:31:12;22.10;70.70
10270;DHT22;70826;50.930;5.334;2023-11-21T03:33:38;22.10;70.80
10270;DHT22;70826;50.930;5.334;2023-11-21T03:36:04;22.10;70.80
10270;DHT22;70826;50.930;5.334;2023-11-21T03:38:35;22.10;70.80
10270;DHT22;70826;50.930;5.334;2023-11-21T03:41:01;22.10;70.80
10270;DHT22;70826;50.930;5.334;2023-11-21T03:43:29;22.10;70.80
10270;DHT22;70826;50.930;5.334;2023-11-21T03:46:02;22.10;70.80
10270;DHT22;70826;50.930;5.334;2023-11-21T03:48:30;22.00;70.70
10270;DHT22;70826;50.930;5.334;2023-11-21T03:50:56;22.00;70.70
10270;DHT22;70826;50.930;5.334;2023-11-21T03:53:24;22.10;70.80
10270;DHT22;70826;50.930;5.334;2023-11-21T03:55:52;22.10;70.80
10270;DHT22;70826;50.930;5.334;2023-11-21T03:58:20;22.10;70.80
10270;DHT22;70826;50.930;5.334;2023-11-21T04:00:47;22.00;70.70
10270;DHT22;70826;50.930;5.334;2023-11-21T04:03:17;22.10;70.80
10270;DHT22;70826;50.930;5.334;2023-11-21T04:05:44;22.10;70.80
10270;DHT22;70826;50.930;5.334;2023-11-21T04:08:12;22.10;70.80
10270;DHT22;70826;50.930;5.334;2023-11-21T04:10:38;22.10;70.80
10270;DHT22;70826;50.930;5.334;2023-11-21T04:13:05;22.10;70.80
10270;DHT22;70826;50.930;5.334;2023-11-21T04:15:33;22.10;70.80
10270;DHT22;70826;50.930;5.334;2023-11-21T04:17:59;22.00;70.70
10270;DHT22;70826;50.930;5.334;2023-11-21T04:20:27;22.00;70.70
10270;DHT22;70826;50.930;5.334;2023-11-21T04:22:54;22.00;70.70
10270;DHT22;70826;50.930;5.334;2023-11-21T04:25:20;22.10;70.80
10270;DHT22;70826;50.930;5.334;2023-11-21T04:27:46;22.00;70.70
10270;DHT22;70826;50.930;5.334;2023-11-21T04:30:14;22.10;70.80
10270;DHT22;70826;50.930;5.334;2023-11-21T04:32:45;22.10;70.80
10270;DHT22;70826;50.930;5.334;2023-11-21T04:35:15;22.10;70.70
10270;DHT22;70826;50.930;5.334;2023-11-21T04:37:47;22.00;70.70
10270;DHT22;70826;50.930;5.334;2023-11-21T04:40:13;22.00;70.70
10270;DHT22;70826;50.930;5.334;2023-11-21T04:42:41;22.00;70.70
10270;DHT22;70826;50.930;5.334;2023-11-21T04:45:08;22.00;70.70
10270;DHT22;70826;50.930;5.334;2023-11-21T04:47:34;22.00;70.70
10270;DHT22;70826;50.930;5.334;2023-11-21T04:50:02;22.00;70.70
10270;DHT22;70826;50.930;5.334;2023-11-21T04:52:31;22.00;70.70
10270;DHT22;70826;50.930;5.334;2023-11-21T04:55:02;22.00;70.70
10270;DHT22;70826;50.930;5.334;2023-11-21T04:57:28;22.00;70.70
10270;DHT22;70826;50.930;5.334;2023-11-21T04:59:56;22.10;70.80
10270;DHT22;70826;50.930;5.334;2023-11-21T05:02:24;22.00;70.70
10270;DHT22;70826;50.930;5.334;2023-11-21T05:04:52;22.00;70.70
10270;DHT22;70826;50.930;5.334;2023-11-21T05:07:21;22.00;70.70
10270;DHT22;70826;50.930;5.334;2023-11-21T05:09:47;22.00;70.70
10270;DHT22;70826;50.930;5.334;2023-11-21T05:12:13;22.00;70.70
10270;DHT22;70826;50.930;5.334;2023-11-21T05:14:42;22.00;70.70
10270;DHT22;70826;50.930;5.334;2023-11-21T05:17:11;22.00;70.70
10270;DHT22;70826;50.930;5.334;2023-11-21T05:19:39;22.00;71.40
10270;DHT22;70826;50.930;5.334;2023-11-21T05:22:05;22.00;70.70
10270;DHT22;70826;50.930;5.334;2023-11-21T05:24:31;22.00;71.40
10270;DHT22;70826;50.930;5.334;2023-11-21T05:26:59;22.00;70.70
10270;DHT22;70826;50.930;5.334;2023-11-21T05:29:27;22.00;70.70
10270;DHT22;70826;50.930;5.334;2023-11-21T05:31:53;22.00;70.70
10270;DHT22;70826;50.930;5.334;2023-11-21T05:34:21;22.00;70.70
10270;DHT22;70826;50.930;5.334;2023-11-21T05:36:51;22.00;70.70
10270;DHT22;70826;50.930;5.334;2023-11-21T05:39:19;22.00;70.70
10270;DHT22;70826;50.930;5.334;2023-11-21T05:41:47;22.00;70.70
10270;DHT22;70826;50.930;5.334;2023-11-21T05:44:13;22.00;70.70
10270;DHT22;70826;50.930;5.334;2023-11-21T05:46:42;22.00;70.70
10270;DHT22;70826;50.930;5.334;2023-11-21T05:49:09;22.00;70.70
10270;DHT22;70826;50.930;5.334;2023-11-21T05:51:37;22.00;70.70
10270;DHT22;70826;50.930;5.334;2023-11-21T05:54:04;22.00;70.70
10270;DHT22;70826;50.930;5.334;2023-11-21T05:56:29;22.00;70.70
10270;DHT22;70826;50.930;5.334;2023-11-21T05:59:02;22.00;70.70
10270;DHT22;70826;50.930;5.334;2023-11-21T06:01:28;22.00;70.70
10270;DHT22;70826;50.930;5.334;2023-11-21T06:03:56;22.00;70.70
10270;DHT22;70826;50.930;5.334;2023-11-21T06:06:25;22.00;70.70
10270;DHT22;70826;50.930;5.334;2023-11-21T06:08:51;22.00;70.70
10270;DHT22;70826;50.930;5.334;2023-11-21T06:11:17;22.00;70.70
10270;DHT22;70826;50.930;5.334;2023-11-21T06:13:47;22.00;70.70
10270;DHT22;70826;50.930;5.334;2023-11-21T06:16:16;22.00;70.70
10270;DHT22;70826;50.930;5.334;2023-11-21T06:18:45;22.00;70.70
10270;DHT22;70826;50.930;5.334;2023-11-21T06:21:12;22.00;70.70
10270;DHT22;70826;50.930;5.334;2023-11-21T06:23:42;22.00;70.60
10270;DHT22;70826;50.930;5.334;2023-11-21T06:26:07;22.00;70.60
10270;DHT22;70826;50.930;5.334;2023-11-21T06:28:34;22.00;70.60
10270;DHT22;70826;50.930;5.334;2023-11-21T06:31:03;22.00;70.70
10270;DHT22;70826;50.930;5.334;2023-11-21T06:33:35;22.00;70.70
10270;DHT22;70826;50.930;5.334;2023-11-21T06:36:02;22.00;70.70
10270;DHT22;70826;50.930;5.334;2023-11-21T06:38:31;22.00;70.70
10270;DHT22;70826;50.930;5.334;2023-11-21T06:41:02;22.00;70.70
10270;DHT22;70826;50.930;5.334;2023-11-21T06:43:32;22.00;70.70
10270;DHT22;70826;50.930;5.334;2023-11-21T06:45:57;22.00;70.60
10270;DHT22;70826;50.930;5.334;2023-11-21T06:48:26;22.00;70.70
10270;DHT22;70826;50.930;5.334;2023-11-21T06:50:57;22.00;70.70
10270;DHT22;70826;50.930;5.334;2023-11-21T06:53:25;22.00;70.70
10270;DHT22;70826;50.930;5.334;2023-11-21T06:55:51;22.00;70.70
10270;DHT22;70826;50.930;5.334;2023-11-21T06:58:18;22.00;70.70
10270;DHT22;70826;50.930;5.334;2023-11-21T07:00:51;22.00;70.70
10270;DHT22;70826;50.930;5.334;2023-11-21T07:03:17;22.00;70.70
10270;DHT22;70826;50.930;5.334;2023-11-21T07:05:44;22.00;70.70
10270;DHT22;70826;50.930;5.334;2023-11-21T07:08:14;22.00;70.70
10270;DHT22;70826;50.930;5.334;2023-11-21T07:10:40;22.10;70.80
10270;DHT22;70826;50.930;5.334;2023-11-21T07:13:08;22.00;70.70
10270;DHT22;70826;50.930;5.334;2023-11-21T07:15:40;22.00;70.70
10270;DHT22;70826;50.930;5.334;2023-11-21T07:18:08;22.00;70.70
10270;DHT22;70826;50.930;5.334;2023-11-21T07:20:36;22.00;70.70
10270;DHT22;70826;50.930;5.334;2023-11-21T07:23:06;22.00;70.70
10270;DHT22;70826;50.930;5.334;2023-11-21T07:25:34;22.00;70.70
10270;DHT22;70826;50.930;5.334;2023-11-21T07:28:02;22.00;70.70
10270;DHT22;70826;50.930;5.334;2023-11-21T07:30:28;22.00;70.70
10270;DHT22;70826;50.930;5.334;2023-11-21T07:32:54;22.00;70.70
10270;DHT22;70826;50.930;5.334;2023-11-21T07:35:21;22.00;70.70
10270;DHT22;70826;50.930;5.334;2023-11-21T07:37:54;22.00;70.70
10270;DHT22;70826;50.930;5.334;2023-11-21T07:40:24;22.00;70.80
10270;DHT22;70826;50.930;5.334;2023-11-21T07:42:52;22.00;70.70
10270;DHT22;70826;50.930;5.334;2023-11-21T07:45:25;22.00;70.80
10270;DHT22;70826;50.930;5.334;2023-11-21T07:47:55;22.10;70.80
10270;DHT22;70826;50.930;5.334;2023-11-21T07:50:24;22.00;71.40
10270;DHT22;70826;50.930;5.334;2023-11-21T07:52:54;22.00;70.70
10270;DHT22;70826;50.930;5.334;2023-11-21T07:55:22;22.00;70.70
10270;DHT22;70826;50.930;5.334;2023-11-21T07:57:47;22.00;70.70
10270;DHT22;70826;50.930;5.334;2023-11-21T08:00:13;22.00;70.70
10270;DHT22;70826;50.930;5.334;2023-11-21T08:02:43;22.00;70.70
10270;DHT22;70826;50.930;5.334;2023-11-21T08:05:15;22.00;70.70
10270;DHT22;70826;50.930;5.334;2023-11-21T08:07:45;22.00;71.40
10270;DHT22;70826;50.930;5.334;2023-11-21T08:10:13;22.00;70.80
10270;DHT22;70826;50.930;5.334;2023-11-21T08:12:39;22.00;70.70
10270;DHT22;70826;50.930;5.334;2023-11-21T08:15:08;22.10;70.80
10270;DHT22;70826;50.930;5.334;2023-11-21T08:17:37;22.00;70.70
10270;DHT22;70826;50.930;5.334;2023-11-21T08:20:06;22.00;70.70
10270;DHT22;70826;50.930;5.334;2023-11-21T08:22:36;22.10;70.80
10270;DHT22;70826;50.930;5.334;2023-11-21T08:25:06;22.00;70.80
10270;DHT22;70826;50.930;5.334;2023-11-21T08:27:37;22.00;70.70
10270;DHT22;70826;50.930;5.334;2023-11-21T08:30:05;22.00;70.70
10270;DHT22;70826;50.930;5.334;2023-11-21T08:32:31;22.00;70.70
10270;DHT22;70826;50.930;5.334;2023-11-21T08:35:01;22.00;70.70
10270;DHT22;70826;50.930;5.334;2023-11-21T08:37:26;22.00;70.70
10270;DHT22;70826;50.930;5.334;2023-11-21T08:39:53;22.00;70.70
10270;DHT22;70826;50.930;5.334;2023-11-21T08:42:19;22.10;70.80
10270;DHT22;70826;50.930;5.334;2023-11-21T08:44:45;22.00;70.80
10270;DHT22;70826;50.930;5.334;2023-11-21T08:47:13;22.00;70.80
10270;DHT22;70826;50.930;5.334;2023-11-21T08:49:39;22.00;70.80
10270;DHT22;70826;50.930;5.334;2023-11-21T08:52:10;22.00;70.80
10270;DHT22;70826;50.930;5.334;2023-11-21T08:54:35;22.00;70.80
10270;DHT22;70826;50.930;5.334;2023-11-21T08:57:04;22.00;70.70
10270;DHT22;70826;50.930;5.334;2023-11-21T08:59:32;22.10;70.90
10270;DHT22;70826;50.930;5.334;2023-11-21T09:02:03;22.10;70.80
10270;DHT22;70826;50.930;5.334;2023-11-21T09:04:28;22.10;70.90
10270;DHT22;70826;50.930;5.334;2023-11-21T09:06:56;22.00;70.80
10270;DHT22;70826;50.930;5.334;2023-11-21T09:09:27;22.00;70.80
10270;DHT22;70826;50.930;5.334;2023-11-21T09:11:55;22.10;70.90
10270;DHT22;70826;50.930;5.334;2023-11-21T09:14:21;22.00;70.80
10270;DHT22;70826;50.930;5.334;2023-11-21T09:16:46;22.00;70.80
10270;DHT22;70826;50.930;5.334;2023-11-21T09:19:19;22.00;70.80
10270;DHT22;70826;50.930;5.334;2023-11-21T09:21:47;22.00;70.80
10270;DHT22;70826;50.930;5.334;2023-11-21T09:24:13;22.00;70.90
10270;DHT22;70826;50.930;5.334;2023-11-21T09:26:38;22.00;70.90
10270;DHT22;70826;50.930;5.334;2023-11-21T09:29:04;22.00;70.90
10270;DHT22;70826;50.930;5.334;2023-11-21T09:31:33;22.00;70.90
10270;DHT22;70826;50.930;5.334;2023-11-21T09:34:04;22.00;70.90
10270;DHT22;70826;50.930;5.334;2023-11-21T09:36:29;22.00;71.00
10270;DHT22;70826;50.930;5.334;2023-11-21T09:39:01;22.00;71.30
10270;DHT22;70826;50.930;5.334;2023-11-21T09:41:40;21.90;71.70
10270;DHT22;70826;50.930;5.334;2023-11-21T09:44:13;21.80;72.20
10270;DHT22;70826;50.930;5.334;2023-11-21T09:46:44;21.80;72.30
10270;DHT22;70826;50.930;5.334;2023-11-21T09:49:18;21.80;72.60
10270;DHT22;70826;50.930;5.334;2023-11-21T09:51:55;21.80;72.90
10270;DHT22;70826;50.930;5.334;2023-11-21T09:54:21;21.70;73.10
10270;DHT22;70826;50.930;5.334;2023-11-21T09:56:52;21.70;73.30
10270;DHT22;70826;50.930;5.334;2023-11-21T09:59:22;21.70;73.40
10270;DHT22;70826;50.930;5.334;2023-11-21T10:01:52;21.80;73.40
10270;DHT22;70826;50.930;5.334;2023-11-21T10:04:21;22.00;73.20
10270;DHT22;70826;50.930;5.334;2023-11-21T10:06:50;22.10;73.10
10270;DHT22;70826;50.930;5.334;2023-11-21T10:09:18;22.10;73.00
10270;DHT22;70826;50.930;5.334;2023-11-21T10:11:47;22.30;73.10
10270;DHT22;70826;50.930;5.334;2023-11-21T10:14:14;22.30;73.20
10270;DHT22;70826;50.930;5.334;2023-11-21T10:16:41;22.30;73.30
10270;DHT22;70826;50.930;5.334;2023-11-21T10:19:11;22.30;73.30
10270;DHT22;70826;50.930;5.334;2023-11-21T10:21:41;22.40;73.30
10270;DHT22;70826;50.930;5.334;2023-11-21T10:24:07;22.40;73.20
10270;DHT22;70826;50.930;5.334;2023-11-21T10:26:36;22.50;73.10
10270;DHT22;70826;50.930;5.334;2023-11-21T10:29:02;22.60;72.90
10270;DHT22;70826;50.930;5.334;2023-11-21T10:31:32;22.60;72.70
10270;DHT22;70826;50.930;5.334;2023-11-21T10:36:40;22.70;72.30
10270;DHT22;70826;50.930;5.334;2023-11-21T10:39:06;22.80;72.20
10270;DHT22;70826;50.930;5.334;2023-11-21T10:41:33;22.80;72.10
10270;DHT22;70826;50.930;5.334;2023-11-21T10:43:59;22.80;72.00
10270;DHT22;70826;50.930;5.334;2023-11-21T10:46:29;22.80;71.90
10270;DHT22;70826;50.930;5.334;2023-11-21T10:48:58;22.80;71.80
10270;DHT22;70826;50.930;5.334;2023-11-21T10:51:23;22.80;71.70
10270;DHT22;70826;50.930;5.334;2023-11-21T10:53:51;22.80;71.60
10270;DHT22;70826;50.930;5.334;2023-11-21T10:56:18;22.80;71.60
10270;DHT22;70826;50.930;5.334;2023-11-21T10:58:51;22.80;71.50
10270;DHT22;70826;50.930;5.334;2023-11-21T11:01:20;22.80;71.50
10270;DHT22;70826;50.930;5.334;2023-11-21T11:03:50;22.80;71.50
10270;DHT22;70826;50.930;5.334;2023-11-21T11:06:20;22.80;71.40
10270;DHT22;70826;50.930;5.334;2023-11-21T11:08:47;22.80;71.40
10270;DHT22;70826;50.930;5.334;2023-11-21T11:11:17;22.70;71.40
10270;DHT22;70826;50.930;5.334;2023-11-21T11:13:46;22.70;71.30
10270;DHT22;70826;50.930;5.334;2023-11-21T11:16:12;22.70;71.30
10270;DHT22;70826;50.930;5.334;2023-11-21T11:18:45;22.70;71.30
10270;DHT22;70826;50.930;5.334;2023-11-21T11:21:43;22.70;71.30
10270;DHT22;70826;50.930;5.334;2023-11-21T11:24:24;22.60;71.30
10270;DHT22;70826;50.930;5.334;2023-11-21T11:33:06;22.60;71.30
10270;DHT22;70826;50.930;5.334;2023-11-21T11:38:03;22.60;71.30
10270;DHT22;70826;50.930;5.334;2023-11-21T11:40:45;22.60;71.30
10270;DHT22;70826;50.930;5.334;2023-11-21T11:43:27;22.60;71.40
10270;DHT22;70826;50.930;5.334;2023-11-21T11:45:59;22.50;71.40
10270;DHT22;70826;50.930;5.334;2023-11-21T11:48:27;22.50;71.40
10270;DHT22;70826;50.930;5.334;2023-11-21T11:51:11;22.50;71.40
10270;DHT22;70826;50.930;5.334;2023-11-21T11:53:41;22.50;71.40
10270;DHT22;70826;50.930;5.334;2023-11-21T11:56:30;22.50;71.40
10270;DHT22;70826;50.930;5.334;2023-11-21T11:59:03;22.40;71.40
10270;DHT22;70826;50.930;5.334;2023-11-21T12:01:34;22.50;71.40
10270;DHT22;70826;50.930;5.334;2023-11-21T12:06:45;22.40;71.50
10270;DHT22;70826;50.930;5.334;2023-11-21T12:09:26;22.40;72.10
10270;DHT22;70826;50.930;5.334;2023-11-21T12:11:56;22.40;71.60
10270;DHT22;70826;50.930;5.334;2023-11-21T12:14:24;22.40;71.50
10270;DHT22;70826;50.930;5.334;2023-11-21T12:16:50;22.40;72.20
10270;DHT22;70826;50.930;5.334;2023-11-21T12:19:17;22.40;71.60
10270;DHT22;70826;50.930;5.334;2023-11-21T12:21:45;22.30;71.60
10270;DHT22;70826;50.930;5.334;2023-11-21T12:24:16;22.40;71.60
10270;DHT22;70826;50.930;5.334;2023-11-21T12:26:42;22.30;71.60
10270;DHT22;70826;50.930;5.334;2023-11-21T12:29:15;22.30;71.60
10270;DHT22;70826;50.930;5.334;2023-11-21T12:31:44;22.30;71.70
10270;DHT22;70826;50.930;5.334;2023-11-21T12:34:12;22.30;71.70
10270;DHT22;70826;50.930;5.334;2023-11-21T12:36:38;22.30;71.70
10270;DHT22;70826;50.930;5.334;2023-11-21T12:39:07;22.30;71.70
10270;DHT22;70826;50.930;5.334;2023-11-21T12:41:36;22.30;71.70
10270;DHT22;70826;50.930;5.334;2023-11-21T12:44:01;22.30;71.70
10270;DHT22;70826;50.930;5.334;2023-11-21T12:46:29;22.30;71.70
10270;DHT22;70826;50.930;5.334;2023-11-21T12:48:56;22.30;71.80
10270;DHT22;70826;50.930;5.334;2023-11-21T12:51:25;22.30;71.80
10270;DHT22;70826;50.930;5.334;2023-11-21T12:53:59;22.30;71.90
10270;DHT22;70826;50.930;5.334;2023-11-21T12:56:24;22.30;71.90
10270;DHT22;70826;50.930;5.334;2023-11-21T12:58:57;22.30;71.90
10270;DHT22;70826;50.930;5.334;2023-11-21T13:01:25;22.20;71.90
10270;DHT22;70826;50.930;5.334;2023-11-21T13:03:53;22.30;71.90
10270;DHT22;70826;50.930;5.334;2023-11-21T13:06:24;22.30;71.90
10270;DHT22;70826;50.930;5.334;2023-11-21T13:08:54;22.20;72.00
10270;DHT22;70826;50.930;5.334;2023-11-21T13:11:24;22.30;72.60
10270;DHT22;70826;50.930;5.334;2023-11-21T13:13:56;22.30;72.00
10270;DHT22;70826;50.930;5.334;2023-11-21T13:16:24;22.30;72.00
10270;DHT22;70826;50.930;5.334;2023-11-21T13:18:52;22.30;72.00
10270;DHT22;70826;50.930;5.334;2023-11-21T13:21:18;22.30;72.10
10270;DHT22;70826;50.930;5.334;2023-11-21T13:23:43;22.30;72.10
10270;DHT22;70826;50.930;5.334;2023-11-21T13:26:15;22.30;72.00
10270;DHT22;70826;50.930;5.334;2023-11-21T13:28:41;22.20;72.10
10270;DHT22;70826;50.930;5.334;2023-11-21T13:31:11;22.30;72.10
10270;DHT22;70826;50.930;5.334;2023-11-21T13:33:56;22.30;72.10
10270;DHT22;70826;50.930;5.334;2023-11-21T13:36:25;22.20;72.00
10270;DHT22;70826;50.930;5.334;2023-11-21T13:38:51;22.30;72.10
10270;DHT22;70826;50.930;5.334;2023-11-21T13:41:19;22.20;72.10
10270;DHT22;70826;50.930;5.334;2023-11-21T13:43:45;22.20;72.10
10270;DHT22;70826;50.930;5.334;2023-11-21T13:46:26;22.20;72.10
10270;DHT22;70826;50.930;5.334;2023-11-21T13:48:52;22.20;72.10
10270;DHT22;70826;50.930;5.334;2023-11-21T13:51:22;22.20;72.10
10270;DHT22;70826;50.930;5.334;2023-11-21T13:53:58;22.20;72.10
10270;DHT22;70826;50.930;5.334;2023-11-21T13:56:26;22.20;72.10
10270;DHT22;70826;50.930;5.334;2023-11-21T13:58:55;22.20;72.10
10270;DHT22;70826;50.930;5.334;2023-11-21T14:01:22;22.20;72.20
10270;DHT22;70826;50.930;5.334;2023-11-21T14:04:06;22.20;72.80
10270;DHT22;70826;50.930;5.334;2023-11-21T14:06:51;22.20;72.20
10270;DHT22;70826;50.930;5.334;2023-11-21T14:09:25;22.20;72.20
10270;DHT22;70826;50.930;5.334;2023-11-21T14:12:01;22.20;72.20
10270;DHT22;70826;50.930;5.334;2023-11-21T14:14:32;22.20;72.10
10270;DHT22;70826;50.930;5.334;2023-11-21T14:16:59;22.20;72.20
10270;DHT22;70826;50.930;5.334;2023-11-21T14:19:30;22.20;72.20
10270;DHT22;70826;50.930;5.334;2023-11-21T14:21:57;22.20;72.20
10270;DHT22;70826;50.930;5.334;2023-11-21T14:24:23;22.20;72.20
10270;DHT22;70826;50.930;5.334;2023-11-21T14:26:53;22.20;72.20
10270;DHT22;70826;50.930;5.334;2023-11-21T14:29:22;22.20;72.20
10270;DHT22;70826;50.930;5.334;2023-11-21T14:31:53;22.20;72.20
10270;DHT22;70826;50.930;5.334;2023-11-21T14:34:22;22.20;72.20
10270;DHT22;70826;50.930;5.334;2023-11-21T14:36:48;22.20;72.20
10270;DHT22;70826;50.930;5.334;2023-11-21T14:39:17;22.20;72.30
10270;DHT22;70826;50.930;5.334;2023-11-21T14:41:49;22.20;72.20
10270;DHT22;70826;50.930;5.334;2023-11-21T14:44:15;22.20;72.20
10270;DHT22;70826;50.930;5.334;2023-11-21T14:46:41;22.20;72.30
10270;DHT22;70826;50.930;5.334;2023-11-21T14:49:12;22.20;72.30
10270;DHT22;70826;50.930;5.334;2023-11-21T14:51:53;22.10;72.20
10270;DHT22;70826;50.930;5.334;2023-11-21T14:54:31;22.20;72.30
10270;DHT22;70826;50.930;5.334;2023-11-21T14:57:14;22.10;72.20
10270;DHT22;70826;50.930;5.334;2023-11-21T14:59:47;22.10;72.20
10270;DHT22;70826;50.930;5.334;2023-11-21T15:02:17;22.20;72.30
10270;DHT22;70826;50.930;5.334;2023-11-21T15:04:48;22.10;72.30
10270;DHT22;70826;50.930;5.334;2023-11-21T15:07:18;22.10;72.30
10270;DHT22;70826;50.930;5.334;2023-11-21T15:09:43;22.10;72.30
10270;DHT22;70826;50.930;5.334;2023-11-21T15:12:12;22.10;72.30
10270;DHT22;70826;50.930;5.334;2023-11-21T15:14:43;22.10;72.30
10270;DHT22;70826;50.930;5.334;2023-11-21T15:17:13;22.10;72.30
10270;DHT22;70826;50.930;5.334;2023-11-21T15:19:49;22.10;72.30
10270;DHT22;70826;50.930;5.334;2023-11-21T15:22:18;22.10;72.30
10270;DHT22;70826;50.930;5.334;2023-11-21T15:24:48;22.10;72.30
10270;DHT22;70826;50.930;5.334;2023-11-21T15:27:17;22.10;72.30
10270;DHT22;70826;50.930;5.334;2023-11-21T15:29:46;22.10;72.30
10270;DHT22;70826;50.930;5.334;2023-11-21T15:32:15;22.10;72.30
10270;DHT22;70826;50.930;5.334;2023-11-21T15:34:43;22.10;72.30
10270;DHT22;70826;50.930;5.334;2023-11-21T15:37:13;22.10;72.40
10270;DHT22;70826;50.930;5.334;2023-11-21T15:39:39;22.10;72.40
10270;DHT22;70826;50.930;5.334;2023-11-21T15:42:05;22.10;72.40
10270;DHT22;70826;50.930;5.334;2023-11-21T15:44:35;22.10;72.70
10270;DHT22;70826;50.930;5.334;2023-11-21T15:47:02;22.10;72.70
10270;DHT22;70826;50.930;5.334;2023-11-21T15:49:29;22.20;72.80
10270;DHT22;70826;50.930;5.334;2023-11-21T15:52:03;22.20;72.80
10270;DHT22;70826;50.930;5.334;2023-11-21T15:54:34;22.20;72.70